Time;durP1;ratioP1;P1;durP2;ratioP2;P2;SDS_P1;SDS_P2;PMS_P1;PMS_P2;Temp;Humidity;BMP_temperature;BMP_pressure;BME280_temperature;BME280_humidity;BME280_pressure;Samples;Min_cycle;Max_cycle;Signal;HPM_P1;HPM_P2
2024/04/04 00:02:25;;;;;;;0.13;0.03;;;;;;;;;;4993413;28;20029;-88
2024/04/04 00:05:00;;;;;;;0.10;0.10;;;;;;;;;;4985828;28;20679;-89
2024/04/04 00:07:27;;;;;;;0.13;0.00;;;;;;;;;;4998470;28;20034;-88
2024/04/04 00:09:53;;;;;;;0.88;0.38;;;;;;;;;;4996067;28;20438;-88
2024/04/04 00:12:20;;;;;;;0.45;0.10;;;;;;;;;;4995206;28;20134;-88
2024/04/04 00:14:46;;;;;;;0.25;0.20;;;;;;;;;;5006267;28;20049;-88
2024/04/04 00:17:12;;;;;;;1.17;0.30;;;;;;;;;;4998354;28;20060;-88
2024/04/04 00:19:38;;;;;;;3.67;0.17;;;;;;;;;;4997601;28;20484;-88
2024/04/04 00:22:04;;;;;;;1.10;0.20;;;;;;;;;;4998232;28;20034;-87
2024/04/04 00:24:30;;;;;;;1.33;0.55;;;;;;;;;;4990473;28;20042;-88
2024/04/04 00:26:56;;;;;;;2.92;1.33;;;;;;;;;;4992156;28;20030;-88
2024/04/04 00:29:22;;;;;;;0.65;0.20;;;;;;;;;;4994682;28;20042;-88
2024/04/04 00:31:48;;;;;;;0.82;0.20;;;;;;;;;;4993401;28;20034;-89
2024/04/04 00:34:14;;;;;;;0.15;0.15;;;;;;;;;;4986171;28;20038;-88
2024/04/04 00:36:41;;;;;;;1.55;0.25;;;;;;;;;;4977080;28;20026;-88
2024/04/04 00:39:07;;;;;;;0.52;0.38;;;;;;;;;;4990796;28;20045;-87
2024/04/04 00:41:33;;;;;;;0.65;0.30;;;;;;;;;;4988035;28;20026;-88
2024/04/04 00:43:59;;;;;;;2.80;0.65;;;;;;;;;;4988138;28;20510;-88
2024/04/04 00:46:25;;;;;;;0.40;0.20;;;;;;;;;;4990374;28;20124;-88
2024/04/04 00:48:52;;;;;;;2.05;0.43;;;;;;;;;;4987607;28;20069;-87
2024/04/04 00:51:18;;;;;;;0.10;0.10;;;;;;;;;;4991655;28;20029;-88
2024/04/04 00:53:44;;;;;;;0.68;0.10;;;;;;;;;;4988503;28;20042;-87
2024/04/04 00:56:10;;;;;;;0.10;0.10;;;;;;;;;;4993653;28;20065;-88
2024/04/04 00:58:36;;;;;;;0.65;0.25;;;;;;;;;;4993822;28;20034;-88
2024/04/04 01:01:03;;;;;;;0.52;0.43;;;;;;;;;;4975854;28;20108;-88
2024/04/04 01:03:29;;;;;;;0.70;0.30;;;;;;;;;;4986651;28;20198;-88
2024/04/04 01:05:55;;;;;;;0.25;0.13;;;;;;;;;;4992243;28;20041;-88
2024/04/04 01:08:23;;;;;;;1.35;0.57;;;;;;;;;;4993125;28;20037;-88
2024/04/04 01:10:49;;;;;;;4.47;1.48;;;;;;;;;;4983353;28;20036;-88
2024/04/04 01:13:15;;;;;;;0.30;0.28;;;;;;;;;;4993587;28;20128;-89
2024/04/04 01:15:41;;;;;;;2.70;0.90;;;;;;;;;;4993434;28;20069;-88
2024/04/04 01:18:08;;;;;;;0.08;0.03;;;;;;;;;;4991367;28;20034;-89
2024/04/04 01:20:34;;;;;;;0.68;0.30;;;;;;;;;;4988234;28;20026;-88
2024/04/04 01:23:00;;;;;;;0.25;0.00;;;;;;;;;;4983104;28;20034;-89
2024/04/04 01:25:26;;;;;;;0.10;0.00;;;;;;;;;;4993416;28;20437;-88
2024/04/04 01:27:52;;;;;;;2.83;0.80;;;;;;;;;;4992794;28;20085;-88
2024/04/04 01:30:18;;;;;;;1.10;0.10;;;;;;;;;;4992610;28;20038;-89
2024/04/04 01:32:44;;;;;;;0.60;0.35;;;;;;;;;;4978636;28;20112;-89
2024/04/04 01:35:10;;;;;;;0.05;0.00;;;;;;;;;;4993208;28;20042;-88
2024/04/04 01:37:37;;;;;;;0.10;0.10;;;;;;;;;;4994557;28;20030;-88
2024/04/04 01:40:04;;;;;;;0.25;0.00;;;;;;;;;;4991503;28;20033;-88
2024/04/04 01:42:30;;;;;;;0.40;0.08;;;;;;;;;;4990702;28;20022;-88
2024/04/04 01:44:56;;;;;;;0.25;0.10;;;;;;;;;;4980382;28;20025;-88
2024/04/04 01:47:22;;;;;;;0.05;0.00;;;;;;;;;;4986331;28;20395;-88
2024/04/04 01:49:48;;;;;;;0.35;0.00;;;;;;;;;;4984221;28;20056;-90
2024/04/04 01:52:17;;;;;;;0.10;0.10;;;;;;;;;;4994736;28;20030;-90
2024/04/04 01:54:43;;;;;;;0.10;0.10;;;;;;;;;;4990991;28;20526;-89
2024/04/04 01:57:09;;;;;;;0.90;0.40;;;;;;;;;;4990384;28;20037;-89
2024/04/04 01:59:35;;;;;;;0.08;0.00;;;;;;;;;;4993710;28;20040;-89
2024/04/04 02:02:02;;;;;;;0.52;0.10;;;;;;;;;;5009165;28;20022;-89
2024/04/04 02:04:28;;;;;;;0.10;0.10;;;;;;;;;;4989891;28;20030;-88
2024/04/04 02:06:54;;;;;;;0.00;0.00;;;;;;;;;;4998789;28;20042;-89
2024/04/04 02:09:20;;;;;;;0.10;0.05;;;;;;;;;;4989256;28;20897;-89
2024/04/04 02:11:46;;;;;;;10.27;0.20;;;;;;;;;;4991287;28;20081;-89
2024/04/04 02:14:12;;;;;;;0.43;0.17;;;;;;;;;;4989850;28;20042;-89
2024/04/04 02:16:39;;;;;;;0.80;0.20;;;;;;;;;;4990067;28;20034;-89
2024/04/04 02:19:05;;;;;;;0.20;0.10;;;;;;;;;;4991843;28;20080;-89
2024/04/04 02:21:32;;;;;;;2.80;0.30;;;;;;;;;;4993178;28;20026;-89
2024/04/04 02:23:58;;;;;;;0.98;0.38;;;;;;;;;;4998377;28;20033;-89
2024/04/04 02:26:24;;;;;;;0.30;0.10;;;;;;;;;;4997972;28;20033;-89
2024/04/04 02:28:50;;;;;;;2.17;0.20;;;;;;;;;;4994026;28;20149;-90
2024/04/04 02:31:16;;;;;;;0.40;0.25;;;;;;;;;;4989060;28;20041;-89
2024/04/04 02:33:42;;;;;;;0.82;0.17;;;;;;;;;;4999112;28;20038;-90
2024/04/04 02:36:08;;;;;;;2.95;0.40;;;;;;;;;;5006243;28;20075;-90
2024/04/04 02:38:35;;;;;;;0.93;0.43;;;;;;;;;;4983640;28;20476;-90
2024/04/04 02:41:04;;;;;;;0.10;0.05;;;;;;;;;;4993025;28;20116;-90
2024/04/04 02:43:33;;;;;;;1.95;1.10;;;;;;;;;;4992368;28;20038;-90
2024/04/04 02:45:59;;;;;;;0.38;0.08;;;;;;;;;;4993102;28;20038;-89
2024/04/04 02:48:28;;;;;;;0.00;0.00;;;;;;;;;;4990232;28;20034;-89
2024/04/04 02:51:00;;;;;;;0.08;0.00;;;;;;;;;;4988571;28;20041;-90
2024/04/04 02:53:27;;;;;;;0.00;0.00;;;;;;;;;;4986704;28;20050;-90
2024/04/04 02:55:57;;;;;;;0.15;0.15;;;;;;;;;;4977295;28;20030;-90
2024/04/04 02:58:26;;;;;;;7.65;0.20;;;;;;;;;;4999425;28;20030;-90
2024/04/04 03:00:55;;;;;;;1.17;0.43;;;;;;;;;;4992950;28;20256;-90
2024/04/04 03:03:24;;;;;;;0.50;0.25;;;;;;;;;;4990127;28;20045;-90
2024/04/04 03:05:50;;;;;;;0.65;0.50;;;;;;;;;;4987530;28;20041;-90
2024/04/04 03:08:26;;;;;;;0.70;0.30;;;;;;;;;;4982469;28;20484;-90
2024/04/04 03:10:53;;;;;;;0.00;0.00;;;;;;;;;;4979825;28;20046;-89
2024/04/04 03:13:19;;;;;;;1.17;0.30;;;;;;;;;;4983112;28;20061;-89
2024/04/04 03:15:58;;;;;;;0.65;0.52;;;;;;;;;;4982723;28;20369;-89
2024/04/04 03:18:24;;;;;;;1.27;0.55;;;;;;;;;;5000316;28;20041;-89
2024/04/04 03:20:50;;;;;;;3.00;0.20;;;;;;;;;;4976469;28;20062;-89
2024/04/04 03:23:16;;;;;;;0.85;0.38;;;;;;;;;;4989066;28;20027;-89
2024/04/04 03:25:42;;;;;;;1.55;0.30;;;;;;;;;;4977139;28;20066;-89
2024/04/04 03:28:08;;;;;;;1.75;0.52;;;;;;;;;;4982540;28;20042;-89
2024/04/04 03:30:34;;;;;;;2.95;0.63;;;;;;;;;;4977874;28;20038;-89
2024/04/04 03:33:01;;;;;;;0.13;0.10;;;;;;;;;;4982698;28;20432;-89
2024/04/04 03:35:27;;;;;;;2.83;0.10;;;;;;;;;;4991988;28;20128;-89
2024/04/04 03:37:53;;;;;;;0.20;0.08;;;;;;;;;;4988216;28;20022;-88
2024/04/04 03:40:19;;;;;;;0.60;0.30;;;;;;;;;;4988760;28;20533;-88
2024/04/04 03:42:46;;;;;;;0.10;0.08;;;;;;;;;;4982751;28;20562;-88
2024/04/04 03:45:12;;;;;;;0.43;0.08;;;;;;;;;;4977366;28;20166;-89
2024/04/04 03:47:38;;;;;;;0.35;0.10;;;;;;;;;;4991551;28;20026;-88
2024/04/04 03:50:04;;;;;;;6.50;0.80;;;;;;;;;;4989029;28;20153;-88
2024/04/04 03:52:31;;;;;;;0.52;0.43;;;;;;;;;;5001367;28;20023;-88
2024/04/04 03:54:57;;;;;;;0.00;0.00;;;;;;;;;;4994584;28;20463;-88
2024/04/04 03:57:23;;;;;;;0.80;0.38;;;;;;;;;;4995072;28;20049;-88
2024/04/04 03:59:49;;;;;;;0.45;0.43;;;;;;;;;;4981910;28;20053;-89
2024/04/04 04:02:15;;;;;;;6.03;0.68;;;;;;;;;;4976341;28;20030;-88
2024/04/04 04:04:42;;;;;;;0.20;0.10;;;;;;;;;;5001801;28;20040;-89
2024/04/04 04:07:07;;;;;;;0.15;0.10;;;;;;;;;;4995491;28;20037;-88
2024/04/04 04:09:33;;;;;;;0.50;0.17;;;;;;;;;;4985787;28;20128;-88
2024/04/04 04:11:59;;;;;;;0.05;0.00;;;;;;;;;;4984621;28;20046;-88
2024/04/04 04:14:25;;;;;;;0.20;0.13;;;;;;;;;;4992377;28;20034;-87
2024/04/04 04:16:51;;;;;;;1.02;0.32;;;;;;;;;;4995474;28;20069;-88
2024/04/04 04:19:17;;;;;;;0.35;0.32;;;;;;;;;;4992538;28;20608;-89
2024/04/04 04:21:43;;;;;;;2.28;0.20;;;;;;;;;;4987029;28;20030;-88
2024/04/04 04:24:09;;;;;;;1.30;0.75;;;;;;;;;;5000128;28;20054;-89
2024/04/04 04:26:35;;;;;;;4.85;0.73;;;;;;;;;;5001671;28;20033;-89
2024/04/04 04:29:01;;;;;;;0.00;0.00;;;;;;;;;;4993312;28;20079;-88
2024/04/04 04:31:32;;;;;;;0.75;0.52;;;;;;;;;;4997914;28;20077;-87
2024/04/04 04:33:59;;;;;;;1.05;0.10;;;;;;;;;;5002209;28;20034;-88
2024/04/04 04:36:26;;;;;;;0.10;0.10;;;;;;;;;;5002045;28;20070;-88
2024/04/04 04:38:52;;;;;;;1.02;0.13;;;;;;;;;;4985656;28;20081;-87
2024/04/04 04:41:18;;;;;;;0.17;0.00;;;;;;;;;;4993270;28;20068;-88
2024/04/04 04:43:46;;;;;;;0.10;0.10;;;;;;;;;;4983280;28;20042;-88
2024/04/04 04:46:18;;;;;;;0.17;0.00;;;;;;;;;;4988314;28;20053;-89
2024/04/04 04:48:44;;;;;;;;;;;;;;;;;;4988749;28;20539;-89
2024/04/04 04:51:10;;;;;;;0.30;0.10;;;;;;;;;;4994922;28;19917;-88
2024/04/04 04:53:36;;;;;;;0.50;0.10;;;;;;;;;;4993467;28;20033;-89
2024/04/04 04:56:03;;;;;;;1.02;0.60;;;;;;;;;;4986003;28;20168;-89
2024/04/04 04:58:30;;;;;;;0.45;0.08;;;;;;;;;;4979280;28;20549;-89
2024/04/04 05:00:56;;;;;;;1.65;0.55;;;;;;;;;;4991381;28;20035;-88
2024/04/04 05:03:23;;;;;;;0.70;0.45;;;;;;;;;;5010244;28;20049;-88
2024/04/04 05:05:50;;;;;;;0.25;0.10;;;;;;;;;;4975525;28;20476;-88
2024/04/04 05:08:17;;;;;;;1.40;0.08;;;;;;;;;;4982751;28;20789;-88
2024/04/04 05:10:43;;;;;;;2.95;0.52;;;;;;;;;;4979007;28;20383;-89
2024/04/04 05:13:09;;;;;;;0.60;0.20;;;;;;;;;;4978980;28;20030;-88
2024/04/04 05:15:55;;;;;;;0.68;0.55;;;;;;;;;;4995016;28;20034;-92
2024/04/04 05:18:21;;;;;;;0.38;0.20;;;;;;;;;;4996389;28;20041;-90
2024/04/04 05:20:47;;;;;;;1.17;0.20;;;;;;;;;;4986913;28;20063;-90
2024/04/04 05:23:13;;;;;;;0.00;0.00;;;;;;;;;;4989559;28;20030;-91
2024/04/04 05:25:39;;;;;;;0.00;0.00;;;;;;;;;;5003325;28;20359;-88
2024/04/04 05:28:08;;;;;;;0.00;0.00;;;;;;;;;;4985445;28;20038;-90
2024/04/04 05:30:34;;;;;;;0.60;0.10;;;;;;;;;;4999955;28;20033;-91
2024/04/04 05:33:01;;;;;;;1.77;0.63;;;;;;;;;;4981298;28;20034;-92
2024/04/04 05:38:37;;;;;;;0.03;0.00;;;;;;;;;;4925113;29;20112;-87
2024/04/04 05:41:04;;;;;;;0.10;0.10;;;;;;;;;;4942089;28;20065;-85
2024/04/04 05:43:30;;;;;;;0.00;0.00;;;;;;;;;;5008581;28;20026;-86
2024/04/04 05:45:56;;;;;;;3.50;0.50;;;;;;;;;;4990241;28;20038;-87
2024/04/04 05:48:22;;;;;;;0.00;0.00;;;;;;;;;;4994168;28;20042;-87
2024/04/04 05:50:48;;;;;;;0.68;0.40;;;;;;;;;;4987968;28;20037;-87
2024/04/04 05:53:14;;;;;;;0.10;0.10;;;;;;;;;;5007367;28;20460;-86
2024/04/04 05:55:40;;;;;;;1.52;0.22;;;;;;;;;;4987673;28;20402;-86
2024/04/04 05:58:06;;;;;;;0.57;0.20;;;;;;;;;;4989330;28;20032;-87
2024/04/04 06:00:32;;;;;;;0.10;0.00;;;;;;;;;;4985342;28;20041;-87
2024/04/04 06:02:58;;;;;;;0.00;0.00;;;;;;;;;;5006587;28;20049;-86
2024/04/04 06:05:24;;;;;;;0.05;0.03;;;;;;;;;;4992100;28;20087;-86
2024/04/04 06:07:50;;;;;;;0.10;0.10;;;;;;;;;;4993242;28;20022;-86
2024/04/04 06:10:16;;;;;;;7.00;1.13;;;;;;;;;;4986609;28;20081;-86
2024/04/04 06:12:42;;;;;;;1.58;0.50;;;;;;;;;;4983910;28;20066;-86
2024/04/04 06:15:08;;;;;;;1.02;0.90;;;;;;;;;;4999383;28;20037;-86
2024/04/04 06:17:34;;;;;;;0.43;0.20;;;;;;;;;;5011168;28;20040;-86
2024/04/04 06:20:00;;;;;;;1.20;0.20;;;;;;;;;;5009508;28;20057;-85
2024/04/04 06:22:26;;;;;;;0.70;0.15;;;;;;;;;;5000472;28;20103;-86
2024/04/04 06:24:52;;;;;;;0.40;0.10;;;;;;;;;;5009901;28;20397;-85
2024/04/04 06:27:18;;;;;;;0.30;0.00;;;;;;;;;;4991628;28;20037;-86
2024/04/04 06:29:45;;;;;;;0.10;0.00;;;;;;;;;;4988688;28;20476;-86
2024/04/04 06:32:11;;;;;;;0.13;0.10;;;;;;;;;;5000092;28;20480;-86
2024/04/04 06:34:37;;;;;;;2.65;1.17;;;;;;;;;;5010104;28;20081;-86
2024/04/04 06:37:03;;;;;;;0.88;0.10;;;;;;;;;;5000239;28;20033;-85
2024/04/04 06:39:29;;;;;;;0.10;0.05;;;;;;;;;;4996826;28;20034;-85
2024/04/04 06:41:55;;;;;;;0.30;0.10;;;;;;;;;;5010006;28;20452;-85
2024/04/04 06:44:21;;;;;;;1.77;0.90;;;;;;;;;;5009409;28;20042;-85
2024/04/04 06:46:47;;;;;;;1.33;0.40;;;;;;;;;;4999927;28;20066;-85
2024/04/04 06:49:13;;;;;;;0.52;0.13;;;;;;;;;;4991242;28;20595;-85
2024/04/04 06:51:39;;;;;;;0.17;0.10;;;;;;;;;;5008195;28;20132;-85
2024/04/04 06:54:05;;;;;;;0.17;0.10;;;;;;;;;;4989814;28;20128;-86
2024/04/04 06:56:31;;;;;;;2.85;0.10;;;;;;;;;;5006640;28;20042;-86
2024/04/04 06:58:57;;;;;;;0.55;0.30;;;;;;;;;;4992380;28;20065;-86
2024/04/04 07:01:25;;;;;;;0.17;0.10;;;;;;;;;;4989413;28;20685;-87
2024/04/04 07:03:52;;;;;;;0.10;0.10;;;;;;;;;;5007900;28;20052;-87
2024/04/04 07:06:18;;;;;;;0.40;0.30;;;;;;;;;;4988190;28;20526;-86
2024/04/04 07:08:45;;;;;;;0.90;0.40;;;;;;;;;;5003387;28;20038;-86
2024/04/04 07:11:11;;;;;;;0.35;0.10;;;;;;;;;;5002511;28;20042;-87
2024/04/04 07:13:39;;;;;;;0.70;0.20;;;;;;;;;;4992174;28;20427;-86
2024/04/04 07:16:07;;;;;;;0.20;0.10;;;;;;;;;;4988315;28;20034;-85
2024/04/04 07:18:34;;;;;;;1.95;0.47;;;;;;;;;;4990170;28;20038;-86
2024/04/04 07:21:01;;;;;;;0.65;0.38;;;;;;;;;;4997844;28;20054;-86
2024/04/04 07:23:27;;;;;;;1.10;0.15;;;;;;;;;;4984091;28;20034;-86
2024/04/04 07:25:54;;;;;;;0.10;0.10;;;;;;;;;;4982640;28;20041;-86
2024/04/04 07:28:21;;;;;;;3.83;0.75;;;;;;;;;;4998707;28;20430;-86
2024/04/04 07:30:47;;;;;;;0.22;0.10;;;;;;;;;;5001772;28;20034;-86
2024/04/04 07:33:13;;;;;;;1.40;0.32;;;;;;;;;;4998069;28;20401;-86
2024/04/04 07:35:39;;;;;;;0.10;0.08;;;;;;;;;;4981316;28;20034;-86
2024/04/04 07:38:05;;;;;;;1.05;0.60;;;;;;;;;;4999539;28;20082;-85
2024/04/04 07:40:41;;;;;;;0.60;0.10;;;;;;;;;;4992061;28;20022;-85
2024/04/04 07:43:07;;;;;;;0.30;0.10;;;;;;;;;;4995216;28;20025;-85
2024/04/04 07:45:41;;;;;;;0.15;0.00;;;;;;;;;;4993268;28;20181;-86
2024/04/04 07:48:08;;;;;;;0.20;0.10;;;;;;;;;;5001651;28;20432;-86
2024/04/04 07:50:34;;;;;;;0.08;0.00;;;;;;;;;;4982413;28;20821;-86
2024/04/04 07:53:00;;;;;;;1.23;0.10;;;;;;;;;;4994905;28;20547;-86
2024/04/04 07:55:26;;;;;;;1.00;0.20;;;;;;;;;;4984094;28;20034;-86
2024/04/04 07:57:52;;;;;;;0.08;0.05;;;;;;;;;;5009649;28;20099;-86
2024/04/04 08:00:18;;;;;;;0.10;0.05;;;;;;;;;;4991350;28;20799;-86
2024/04/04 08:02:45;;;;;;;1.65;0.52;;;;;;;;;;4977563;28;20057;-86
2024/04/04 08:05:11;;;;;;;1.27;0.35;;;;;;;;;;5009102;28;20026;-86
2024/04/04 08:07:37;;;;;;;0.22;0.20;;;;;;;;;;4995558;28;20038;-86
2024/04/04 08:10:08;;;;;;;0.88;0.30;;;;;;;;;;4979807;28;20172;-86
2024/04/04 08:12:35;;;;;;;0.00;0.00;;;;;;;;;;4982036;28;20543;-86
2024/04/04 08:15:03;;;;;;;0.55;0.43;;;;;;;;;;4993724;28;20038;-85
2024/04/04 08:17:29;;;;;;;0.10;0.10;;;;;;;;;;4986008;28;20488;-86
2024/04/04 08:19:57;;;;;;;0.20;0.17;;;;;;;;;;5008749;28;20407;-85
2024/04/04 08:22:23;;;;;;;0.65;0.10;;;;;;;;;;5008696;28;20056;-85
2024/04/04 08:24:48;;;;;;;0.35;0.13;;;;;;;;;;4995321;28;20717;-86
2024/04/04 08:27:15;;;;;;;0.22;0.10;;;;;;;;;;4991086;28;20136;-86
2024/04/04 08:29:40;;;;;;;4.03;0.28;;;;;;;;;;4995141;28;20260;-86
2024/04/04 08:32:08;;;;;;;1.23;0.73;;;;;;;;;;5007191;28;20843;-85
2024/04/04 08:34:34;;;;;;;2.20;0.10;;;;;;;;;;4995184;28;20108;-86
2024/04/04 08:37:00;;;;;;;0.25;0.08;;;;;;;;;;4988578;28;20037;-85
2024/04/04 08:39:26;;;;;;;0.20;0.10;;;;;;;;;;4990891;28;20038;-86
2024/04/04 08:41:54;;;;;;;0.80;0.30;;;;;;;;;;5004699;28;20034;-85
2024/04/04 08:44:21;;;;;;;0.20;0.10;;;;;;;;;;4989553;28;20465;-86
2024/04/04 08:46:48;;;;;;;1.33;0.10;;;;;;;;;;5005561;28;20036;-86
2024/04/04 08:49:15;;;;;;;0.38;0.20;;;;;;;;;;5002772;28;20058;-86
2024/04/04 08:51:41;;;;;;;0.00;0.00;;;;;;;;;;4979232;28;20109;-86
2024/04/04 08:54:07;;;;;;;0.28;0.15;;;;;;;;;;5000317;28;20243;-86
2024/04/04 08:56:33;;;;;;;0.17;0.17;;;;;;;;;;4997643;28;20847;-86
2024/04/04 08:58:59;;;;;;;0.20;0.20;;;;;;;;;;4988266;28;20038;-86
2024/04/04 09:01:26;;;;;;;0.20;0.20;;;;;;;;;;4994567;28;20044;-84
2024/04/04 09:03:52;;;;;;;4.57;0.43;;;;;;;;;;4986197;28;20026;-85
2024/04/04 09:06:19;;;;;;;0.10;0.10;;;;;;;;;;5012016;28;20042;-86
2024/04/04 09:08:45;;;;;;;0.10;0.10;;;;;;;;;;4990089;28;20089;-85
2024/04/04 09:11:12;;;;;;;1.00;0.20;;;;;;;;;;5003653;28;20026;-85
2024/04/04 09:13:38;;;;;;;0.50;0.17;;;;;;;;;;4981306;28;20045;-85
2024/04/04 09:16:04;;;;;;;16.15;0.77;;;;;;;;;;4987772;28;20046;-86
2024/04/04 09:18:30;;;;;;;0.25;0.10;;;;;;;;;;4986349;28;20042;-86
2024/04/04 09:20:59;;;;;;;0.15;0.13;;;;;;;;;;4994733;28;20450;-86
2024/04/04 09:23:26;;;;;;;0.20;0.20;;;;;;;;;;4990048;28;20034;-85
2024/04/04 09:25:52;;;;;;;0.20;0.20;;;;;;;;;;4989024;28;20722;-85
2024/04/04 09:28:21;;;;;;;0.10;0.10;;;;;;;;;;5008664;28;20042;-85
2024/04/04 09:30:49;;;;;;;3.03;0.08;;;;;;;;;;4988517;28;20044;-85
2024/04/04 09:33:18;;;;;;;0.90;0.10;;;;;;;;;;4980274;28;20076;-86
2024/04/04 09:35:45;;;;;;;0.10;0.00;;;;;;;;;;4977308;28;20037;-85
2024/04/04 09:38:11;;;;;;;0.88;0.17;;;;;;;;;;5007145;28;20026;-85
2024/04/04 09:40:38;;;;;;;0.65;0.35;;;;;;;;;;4988871;28;20029;-85
2024/04/04 09:43:04;;;;;;;0.30;0.20;;;;;;;;;;4986490;28;20072;-85
2024/04/04 09:45:30;;;;;;;0.20;0.00;;;;;;;;;;4981374;28;20057;-86
2024/04/04 09:47:56;;;;;;;0.00;0.00;;;;;;;;;;4990991;28;20072;-86
2024/04/04 09:50:22;;;;;;;0.63;0.20;;;;;;;;;;5003921;28;20050;-86
2024/04/04 09:52:48;;;;;;;0.00;0.00;;;;;;;;;;4975194;28;20065;-86
2024/04/04 09:55:21;;;;;;;0.10;0.00;;;;;;;;;;5010629;28;20034;-85
2024/04/04 09:57:48;;;;;;;0.80;0.10;;;;;;;;;;5009244;28;20464;-85
2024/04/04 10:00:15;;;;;;;0.10;0.10;;;;;;;;;;5001582;28;20064;-85
2024/04/04 10:02:48;;;;;;;0.32;0.20;;;;;;;;;;4986709;28;20033;-85
2024/04/04 10:05:18;;;;;;;0.30;0.10;;;;;;;;;;4987493;28;20030;-85
2024/04/04 10:07:44;;;;;;;0.00;0.00;;;;;;;;;;5003436;28;20133;-86
2024/04/04 10:10:14;;;;;;;0.20;0.20;;;;;;;;;;4981074;28;20064;-85
2024/04/04 10:12:42;;;;;;;0.10;0.10;;;;;;;;;;4985796;28;20068;-85
2024/04/04 10:15:09;;;;;;;0.00;0.00;;;;;;;;;;5005935;28;20046;-86
2024/04/04 10:17:40;;;;;;;1.55;0.20;;;;;;;;;;4987539;28;20056;-88
2024/04/04 10:20:08;;;;;;;0.47;0.47;;;;;;;;;;4991730;28;20133;-85
2024/04/04 10:22:34;;;;;;;0.75;0.13;;;;;;;;;;4989596;28;20058;-86
2024/04/04 10:25:04;;;;;;;0.88;0.38;;;;;;;;;;5004094;28;20026;-86
2024/04/04 10:27:30;;;;;;;0.63;0.20;;;;;;;;;;4992504;28;20030;-86
2024/04/04 10:29:57;;;;;;;1.55;0.32;;;;;;;;;;4987882;28;20140;-85
2024/04/04 10:32:23;;;;;;;0.28;0.20;;;;;;;;;;4989834;28;20033;-86
2024/04/04 10:34:59;;;;;;;0.22;0.10;;;;;;;;;;5008642;28;20121;-86
2024/04/04 10:37:25;;;;;;;2.38;0.80;;;;;;;;;;5007552;28;20029;-86
2024/04/04 10:39:51;;;;;;;0.30;0.22;;;;;;;;;;5006566;28;20045;-86
2024/04/04 10:42:17;;;;;;;1.40;0.30;;;;;;;;;;4991484;28;20382;-86
2024/04/04 10:44:43;;;;;;;0.25;0.00;;;;;;;;;;4977919;28;20042;-86
2024/04/04 10:47:11;;;;;;;0.38;0.10;;;;;;;;;;5001103;28;20034;-86
2024/04/04 10:49:37;;;;;;;0.98;0.38;;;;;;;;;;4977402;28;20093;-86
2024/04/04 10:52:03;;;;;;;0.10;0.10;;;;;;;;;;4987343;28;20070;-86
2024/04/04 10:54:29;;;;;;;1.92;0.25;;;;;;;;;;5004428;28;20042;-86
2024/04/04 10:56:56;;;;;;;0.60;0.20;;;;;;;;;;4989598;28;20117;-86
2024/04/04 10:59:22;;;;;;;0.80;0.25;;;;;;;;;;4982595;28;20777;-86
2024/04/04 11:01:49;;;;;;;0.63;0.30;;;;;;;;;;4974370;28;20054;-86
2024/04/04 11:04:15;;;;;;;1.10;0.40;;;;;;;;;;5000901;28;20041;-86
2024/04/04 11:06:42;;;;;;;2.30;0.10;;;;;;;;;;5001751;28;20134;-86
2024/04/04 11:09:15;;;;;;;0.70;0.60;;;;;;;;;;4978341;28;20554;-85
2024/04/04 11:11:41;;;;;;;0.32;0.10;;;;;;;;;;4992383;28;20026;-85
2024/04/04 11:14:08;;;;;;;0.03;0.03;;;;;;;;;;4976521;28;20472;-86
2024/04/04 11:16:34;;;;;;;0.10;0.10;;;;;;;;;;5010080;28;20037;-86
2024/04/04 11:19:00;;;;;;;0.10;0.10;;;;;;;;;;4990665;28;20034;-85
2024/04/04 11:21:26;;;;;;;3.20;0.40;;;;;;;;;;5009986;28;20037;-86
2024/04/04 11:23:52;;;;;;;4.28;1.95;;;;;;;;;;5007968;28;20030;-86
2024/04/04 11:26:20;;;;;;;4.50;0.52;;;;;;;;;;5006079;28;20061;-86
2024/04/04 11:28:46;;;;;;;0.20;0.20;;;;;;;;;;4998363;28;20048;-85
2024/04/04 11:31:12;;;;;;;1.13;0.20;;;;;;;;;;4988732;28;20600;-86
2024/04/04 11:33:38;;;;;;;0.30;0.25;;;;;;;;;;5004946;28;20121;-86
2024/04/04 11:36:04;;;;;;;0.20;0.10;;;;;;;;;;4981566;28;20130;-84
2024/04/04 11:38:31;;;;;;;0.40;0.20;;;;;;;;;;5009198;28;20034;-85
2024/04/04 11:40:57;;;;;;;0.28;0.10;;;;;;;;;;5001109;28;20057;-85
2024/04/04 11:43:25;;;;;;;1.15;0.10;;;;;;;;;;5001413;28;20066;-85
2024/04/04 11:45:51;;;;;;;0.68;0.35;;;;;;;;;;5009689;28;20036;-85
2024/04/04 11:48:17;;;;;;;0.50;0.20;;;;;;;;;;5005888;28;20042;-85
2024/04/04 11:50:44;;;;;;;0.35;0.10;;;;;;;;;;5009231;28;20053;-85
2024/04/04 11:53:11;;;;;;;0.22;0.10;;;;;;;;;;5005569;28;20037;-84
2024/04/04 11:55:38;;;;;;;0.20;0.00;;;;;;;;;;4991588;28;20030;-85
2024/04/04 11:58:05;;;;;;;0.25;0.08;;;;;;;;;;4998783;28;20050;-85
2024/04/04 12:00:31;;;;;;;0.98;0.50;;;;;;;;;;5006300;28;20022;-85
2024/04/04 12:02:57;;;;;;;2.05;0.20;;;;;;;;;;5004296;28;20018;-85
2024/04/04 12:05:24;;;;;;;0.35;0.10;;;;;;;;;;4990002;28;20084;-85
2024/04/04 12:07:51;;;;;;;0.00;0.00;;;;;;;;;;5009068;28;20042;-85
2024/04/04 12:10:17;;;;;;;0.10;0.00;;;;;;;;;;5005841;28;20041;-85
2024/04/04 12:12:43;;;;;;;0.50;0.10;;;;;;;;;;4991530;28;20821;-85
2024/04/04 12:15:10;;;;;;;0.73;0.20;;;;;;;;;;4975318;28;20157;-86
2024/04/04 12:17:38;;;;;;;0.00;0.00;;;;;;;;;;4989555;28;20038;-86
2024/04/04 12:20:05;;;;;;;1.17;0.28;;;;;;;;;;4992464;28;20034;-86
2024/04/04 12:22:31;;;;;;;1.35;0.10;;;;;;;;;;5004079;28;20033;-86
2024/04/04 12:24:57;;;;;;;0.00;0.00;;;;;;;;;;4987287;28;20400;-86
2024/04/04 12:27:23;;;;;;;0.15;0.13;;;;;;;;;;4994769;28;20120;-86
2024/04/04 12:29:49;;;;;;;0.00;0.00;;;;;;;;;;4994242;28;20034;-85
2024/04/04 12:32:15;;;;;;;2.72;0.10;;;;;;;;;;5004279;28;20041;-85
2024/04/04 12:34:43;;;;;;;1.15;0.30;;;;;;;;;;4985426;28;20057;-85
2024/04/04 12:37:09;;;;;;;0.70;0.05;;;;;;;;;;4994961;28;20125;-86
2024/04/04 12:39:35;;;;;;;2.45;0.10;;;;;;;;;;4994272;28;20137;-85
2024/04/04 12:42:01;;;;;;;0.47;0.20;;;;;;;;;;4993066;28;20387;-85
2024/04/04 12:44:27;;;;;;;0.10;0.00;;;;;;;;;;4988141;28;20048;-85
2024/04/04 12:46:53;;;;;;;0.00;0.00;;;;;;;;;;4985952;28;20041;-84
2024/04/04 12:49:19;;;;;;;0.43;0.10;;;;;;;;;;4996817;28;21352;-85
2024/04/04 12:51:45;;;;;;;0.00;0.00;;;;;;;;;;5012562;28;20042;-85
2024/04/04 12:54:11;;;;;;;0.20;0.00;;;;;;;;;;5002420;28;20373;-85
2024/04/04 12:56:37;;;;;;;0.22;0.22;;;;;;;;;;4994541;28;20041;-85
2024/04/04 12:59:03;;;;;;;0.00;0.00;;;;;;;;;;5009522;28;20061;-85
2024/04/04 13:01:29;;;;;;;0.28;0.10;;;;;;;;;;5002534;28;20049;-85
2024/04/04 13:03:55;;;;;;;0.30;0.10;;;;;;;;;;4997612;28;20546;-85
2024/04/04 13:06:21;;;;;;;0.00;0.00;;;;;;;;;;4978495;28;20041;-86
2024/04/04 13:08:48;;;;;;;0.00;0.00;;;;;;;;;;5007236;28;20042;-85
2024/04/04 13:11:16;;;;;;;0.00;0.00;;;;;;;;;;5008821;28;20593;-86
2024/04/04 13:13:42;;;;;;;0.20;0.10;;;;;;;;;;5012072;28;20589;-85
2024/04/04 13:16:08;;;;;;;2.53;0.95;;;;;;;;;;4993565;28;20061;-86
2024/04/04 13:18:34;;;;;;;1.27;0.40;;;;;;;;;;4985890;28;20121;-85
2024/04/04 13:21:00;;;;;;;0.10;0.00;;;;;;;;;;4981323;28;20041;-86
2024/04/04 13:23:26;;;;;;;0.32;0.10;;;;;;;;;;5011585;28;20045;-85
2024/04/04 13:25:52;;;;;;;3.60;0.20;;;;;;;;;;4993096;28;20040;-85
2024/04/04 13:28:18;;;;;;;2.95;0.10;;;;;;;;;;4993500;28;20387;-86
2024/04/04 13:30:44;;;;;;;0.00;0.00;;;;;;;;;;4985779;28;20030;-85
2024/04/04 13:33:10;;;;;;;1.27;0.40;;;;;;;;;;4991055;28;20014;-86
2024/04/04 13:35:36;;;;;;;0.28;0.10;;;;;;;;;;5008298;28;20034;-86
2024/04/04 13:38:02;;;;;;;1.25;0.10;;;;;;;;;;4985965;28;20073;-87
2024/04/04 13:40:28;;;;;;;0.13;0.08;;;;;;;;;;4988685;28;20089;-87
2024/04/04 13:42:54;;;;;;;0.00;0.00;;;;;;;;;;4991424;28;20113;-86
2024/04/04 13:45:21;;;;;;;0.77;0.10;;;;;;;;;;5010696;28;20061;-86
2024/04/04 13:47:47;;;;;;;0.52;0.10;;;;;;;;;;5008373;28;20033;-86
2024/04/04 13:50:13;;;;;;;0.00;0.00;;;;;;;;;;4998731;28;20389;-85
2024/04/04 13:52:39;;;;;;;0.68;0.10;;;;;;;;;;4973834;28;20030;-86
2024/04/04 13:55:05;;;;;;;0.00;0.00;;;;;;;;;;4988243;28;20045;-88
2024/04/04 13:57:31;;;;;;;1.08;0.32;;;;;;;;;;4979382;28;20030;-86
2024/04/04 13:59:57;;;;;;;0.28;0.10;;;;;;;;;;4996644;28;20042;-87
2024/04/04 14:02:23;;;;;;;0.10;0.10;;;;;;;;;;4974024;28;20043;-87
2024/04/04 14:04:49;;;;;;;0.13;0.10;;;;;;;;;;5000891;28;20031;-86
2024/04/04 14:07:15;;;;;;;0.30;0.00;;;;;;;;;;4975634;28;20524;-87
2024/04/04 14:09:42;;;;;;;0.00;0.00;;;;;;;;;;4992670;28;20038;-86
2024/04/04 14:12:08;;;;;;;0.00;0.00;;;;;;;;;;4967201;28;20038;-86
2024/04/04 14:14:34;;;;;;;0.13;0.10;;;;;;;;;;4980920;28;20038;-85
2024/04/04 14:17:03;;;;;;;0.08;0.00;;;;;;;;;;4980998;28;20042;-87
2024/04/04 14:19:29;;;;;;;0.52;0.10;;;;;;;;;;4955264;28;20034;-85
2024/04/04 14:21:56;;;;;;;0.45;0.13;;;;;;;;;;4976793;28;20032;-86
2024/04/04 14:24:22;;;;;;;0.52;0.52;;;;;;;;;;4975954;28;20121;-86
2024/04/04 14:26:48;;;;;;;1.13;0.22;;;;;;;;;;4989030;28;20421;-86
2024/04/04 14:29:14;;;;;;;2.72;0.10;;;;;;;;;;4990945;28;20472;-86
2024/04/04 14:31:40;;;;;;;1.02;0.35;;;;;;;;;;4980043;28;20066;-85
2024/04/04 14:34:06;;;;;;;0.40;0.17;;;;;;;;;;4987731;28;20066;-87
2024/04/04 14:36:33;;;;;;;2.63;0.00;;;;;;;;;;4968856;28;20705;-87
2024/04/04 14:38:59;;;;;;;0.10;0.00;;;;;;;;;;4994435;28;20137;-87
2024/04/04 14:41:25;;;;;;;0.30;0.20;;;;;;;;;;4994227;28;20109;-85
2024/04/04 14:43:51;;;;;;;0.32;0.25;;;;;;;;;;4965806;28;20038;-86